CEST,Max TemperatureF,Mean TemperatureF,Min TemperatureF,Max Dew PointF,MeanDew PointF,Min DewpointF,Max Humidity, Mean Humidity, Min Humidity, Max Sea Level PressureIn, Mean Sea Level PressureIn, Min Sea Level PressureIn, Max VisibilityMiles, Mean VisibilityMiles, Min VisibilityMiles, Max Wind SpeedMPH, Mean Wind SpeedMPH, Max Gust SpeedMPH,PrecipitationIn, CloudCover, Events, WindDirDegrees
2013-5-1,55,50,45,48,46,43,100,89,74,30.26,30.18,30.09,6,4,1,13,9,,0.04,8,Rain-Thunderstorm,40
2013-5-2,60,53,46,54,49,46,100,91,74,30.15,30.06,30.01,5,2,0,14,6,,0.00,7,Fog-Rain-Thunderstorm,360
2013-5-3,53,50,48,50,48,45,100,91,77,30.01,29.98,29.95,16,5,2,15,10,,0.01,7,Rain,348
2013-5-4,64,53,42,52,46,41,94,80,59,30.12,30.04,30.01,9,6,3,16,5,29,0.00,3,Rain-Hail-Thunderstorm,230
2013-5-5,63,54,46,54,50,45,100,82,63,30.24,30.20,30.12,19,7,6,13,7,,0.00,3,Rain,47
2013-5-6,62,54,46,57,52,45,94,87,77,30.22,30.12,30.03,9,6,4,12,6,,0.02,3,Rain,42
2013-5-7,70,62,55,59,57,54,100,85,61,30.04,29.99,29.94,16,6,2,18,7,,0.04,5,Rain-Thunderstorm,110
2013-5-8,73,62,52,59,56,52,100,83,53,30.01,29.97,29.93,16,6,4,11,5,,0.00,4,,137
2013-5-9,74,62,49,61,57,50,100,81,53,29.98,29.96,29.88,12,6,5,12,5,,0.04,1,Fog-Rain-Thunderstorm,202
2013-5-10,57,54,50,59,55,50,100,95,88,30.01,29.92,29.86,12,5,2,11,5,,0.71,5,Rain,285
2013-5-11,55,52,50,50,48,45,100,86,67,30.02,29.97,29.95,16,7,6,9,5,,0.01,4,Rain,266
2013-5-12,62,53,42,48,44,39,94,76,46,30.04,29.93,29.86,9,6,6,24,9,24,0.12,3,Rain,260
2013-5-13,55,47,39,46,41,37,93,79,54,30.10,30.02,29.98,6,6,6,25,12,30,0.00,3,Rain,234
2013-5-14,63,55,47,48,45,41,93,70,42,29.98,29.92,29.83,6,6,6,16,10,,0.00,3,,205
2013-5-15,72,56,41,54,48,41,93,67,36,29.83,29.70,29.60,16,9,6,20,9,31,0.00,1,,106
2013-5-16,73,60,46,54,50,45,94,65,33,29.62,29.54,29.47,16,7,6,26,11,39,0.01,3,Rain,113
2013-5-17,73,63,53,56,53,48,88,70,45,29.56,29.52,29.49,19,7,6,23,12,,0.00,1,Rain,124
2013-5-18,68,60,51,55,50,46,94,78,48,29.86,29.74,29.56,16,6,4,25,10,,0.04,4,Rain,220
2013-5-19,72,58,43,57,52,43,100,77,51,29.86,29.74,29.61,19,6,2,33,8,63,0.47,2,Rain-Thunderstorm,73
2013-5-20,64,54,45,50,45,43,94,72,43,29.89,29.86,29.77,6,6,6,17,11,,0.00,3,,232
2013-5-21,64,54,43,50,44,41,93,70,38,29.94,29.87,29.80,6,6,6,14,8,,0.00,3,Rain,228
2013-5-22,59,50,42,50,45,39,94,81,57,29.83,29.73,29.65,16,6,6,20,11,,0.08,4,Rain,245
2013-5-23,52,46,39,41,38,36,87,73,49,29.86,29.77,29.71,19,6,6,14,6,,0.00,5,Rain,273
2013-5-24,53,44,34,43,39,32,93,80,61,29.85,29.78,29.71,16,7,6,15,7,,0.00,4,Rain,293
2013-5-25,53,46,38,45,42,37,100,88,70,29.88,29.81,29.77,16,6,3,15,8,,0.16,5,Rain,260
2013-5-26,46,43,40,41,40,39,100,90,81,29.81,29.70,29.65,19,7,6,25,14,36,0.16,7,Rain,228
2013-5-27,55,48,41,48,46,41,100,90,74,29.80,29.71,29.62,9,6,6,17,14,,0.04,6,Rain,242
2013-5-28,64,52,40,50,46,41,100,79,45,29.80,29.66,29.56,19,7,6,14,9,,0.00,2,,264
2013-5-29,65,54,44,55,51,45,100,89,64,29.65,29.55,29.53,19,5,0,15,6,,0.12,3,Fog-Rain-Thunderstorm,143
2013-5-30,51,48,46,50,48,46,100,94,80,29.70,29.60,29.44,19,5,2,18,12,,0.47,8,Rain,290
2013-5-31,58,53,46,54,50,45,100,93,66,29.68,29.48,29.42,16,3,0,16,6,,0.28,7,Fog-Rain,73